sensor_id;sensor_type;location;lat;lon;timestamp;temperature;humidity
28175;SHT30;59417;44.788;10.334;2022-09-19T00:01:57;19.85;52.33
28175;SHT30;59417;44.788;10.334;2022-09-19T00:04:28;19.95;52.37
28175;SHT30;59417;44.788;10.334;2022-09-19T00:06:55;19.99;52.22
28175;SHT30;59417;44.788;10.334;2022-09-19T00:09:25;20.05;52.04
28175;SHT30;59417;44.788;10.334;2022-09-19T00:11:51;19.99;51.40
28175;SHT30;59417;44.788;10.334;2022-09-19T00:14:21;20.00;51.59
28175;SHT30;59417;44.788;10.334;2022-09-19T00:16:47;19.99;51.40
28175;SHT30;59417;44.788;10.334;2022-09-19T00:19:16;20.02;51.42
28175;SHT30;59417;44.788;10.334;2022-09-19T00:21:43;19.99;52.00
28175;SHT30;59417;44.788;10.334;2022-09-19T00:24:12;20.13;51.28
28175;SHT30;59417;44.788;10.334;2022-09-19T00:26:58;20.14;51.66
28175;SHT30;59417;44.788;10.334;2022-09-19T00:29:24;20.05;51.73
28175;SHT30;59417;44.788;10.334;2022-09-19T00:31:50;20.12;51.45
28175;SHT30;59417;44.788;10.334;2022-09-19T00:34:17;20.10;51.76
28175;SHT30;59417;44.788;10.334;2022-09-19T00:36:44;20.08;51.53
28175;SHT30;59417;44.788;10.334;2022-09-19T00:39:12;20.12;52.60
28175;SHT30;59417;44.788;10.334;2022-09-19T00:41:39;20.10;52.30
28175;SHT30;59417;44.788;10.334;2022-09-19T00:47:28;20.06;51.88
28175;SHT30;59417;44.788;10.334;2022-09-19T00:49:49;20.03;52.13
28175;SHT30;59417;44.788;10.334;2022-09-19T00:52:24;20.06;51.95
28175;SHT30;59417;44.788;10.334;2022-09-19T00:54:53;20.03;52.19
28175;SHT30;59417;44.788;10.334;2022-09-19T00:57:19;20.02;52.72
28175;SHT30;59417;44.788;10.334;2022-09-19T00:59:48;20.05;52.94
28175;SHT30;59417;44.788;10.334;2022-09-19T01:02:15;20.05;53.07
28175;SHT30;59417;44.788;10.334;2022-09-19T01:04:44;20.02;52.38
28175;SHT30;59417;44.788;10.334;2022-09-19T01:17:48;19.95;53.06
28175;SHT30;59417;44.788;10.334;2022-09-19T01:28:33;19.38;54.52
28175;SHT30;59417;44.788;10.334;2022-09-19T01:31:14;19.30;54.40
28175;SHT30;59417;44.788;10.334;2022-09-19T01:36:23;19.08;54.93
28175;SHT30;59417;44.788;10.334;2022-09-19T01:38:54;18.94;55.20
28175;SHT30;59417;44.788;10.334;2022-09-19T01:41:26;18.90;55.65
28175;SHT30;59417;44.788;10.334;2022-09-19T01:43:52;18.79;55.94
28175;SHT30;59417;44.788;10.334;2022-09-19T01:46:39;18.70;56.57
28175;SHT30;59417;44.788;10.334;2022-09-19T01:52:14;18.67;55.75
28175;SHT30;59417;44.788;10.334;2022-09-19T01:54:57;18.74;55.95
28175;SHT30;59417;44.788;10.334;2022-09-19T02:00:32;18.57;56.68
28175;SHT30;59417;44.788;10.334;2022-09-19T02:03:18;18.51;55.42
28175;SHT30;59417;44.788;10.334;2022-09-19T02:05:57;18.46;55.99
28175;SHT30;59417;44.788;10.334;2022-09-19T02:08:31;18.57;55.98
28175;SHT30;59417;44.788;10.334;2022-09-19T02:11:06;18.56;56.20
28175;SHT30;59417;44.788;10.334;2022-09-19T02:13:39;18.43;56.61
28175;SHT30;59417;44.788;10.334;2022-09-19T02:16:34;18.41;56.80
28175;SHT30;59417;44.788;10.334;2022-09-19T02:19:25;18.52;56.37
28175;SHT30;59417;44.788;10.334;2022-09-19T02:21:56;18.51;56.94
28175;SHT30;59417;44.788;10.334;2022-09-19T02:24:25;18.43;56.55
28175;SHT30;59417;44.788;10.334;2022-09-19T02:26:56;18.52;55.95
28175;SHT30;59417;44.788;10.334;2022-09-19T02:29:28;18.45;56.37
28175;SHT30;59417;44.788;10.334;2022-09-19T02:31:57;18.46;56.39
28175;SHT30;59417;44.788;10.334;2022-09-19T02:34:23;18.51;56.56
28175;SHT30;59417;44.788;10.334;2022-09-19T02:36:55;18.51;56.58
28175;SHT30;59417;44.788;10.334;2022-09-19T02:39:27;18.32;57.03
28175;SHT30;59417;44.788;10.334;2022-09-19T02:42:29;18.37;57.32
28175;SHT30;59417;44.788;10.334;2022-09-19T02:47:59;18.18;58.88
28175;SHT30;59417;44.788;10.334;2022-09-19T02:50:58;18.08;58.65
28175;SHT30;59417;44.788;10.334;2022-09-19T02:53:33;17.92;58.88
28175;SHT30;59417;44.788;10.334;2022-09-19T02:56:03;18.12;58.76
28175;SHT30;59417;44.788;10.334;2022-09-19T02:58:37;18.06;58.81
28175;SHT30;59417;44.788;10.334;2022-09-19T03:01:09;18.06;59.64
28175;SHT30;59417;44.788;10.334;2022-09-19T03:03:44;17.95;59.90
28175;SHT30;59417;44.788;10.334;2022-09-19T03:06:39;17.94;59.73
28175;SHT30;59417;44.788;10.334;2022-09-19T03:09:11;17.91;60.41
28175;SHT30;59417;44.788;10.334;2022-09-19T03:11:42;17.74;60.86
28175;SHT30;59417;44.788;10.334;2022-09-19T03:14:10;17.64;61.40
28175;SHT30;59417;44.788;10.334;2022-09-19T03:16:40;17.66;60.82
28175;SHT30;59417;44.788;10.334;2022-09-19T03:19:09;17.73;60.25
28175;SHT30;59417;44.788;10.334;2022-09-19T03:21:37;17.66;60.56
28175;SHT30;59417;44.788;10.334;2022-09-19T03:24:04;17.67;60.11
28175;SHT30;59417;44.788;10.334;2022-09-19T03:26:33;17.87;60.33
28175;SHT30;59417;44.788;10.334;2022-09-19T03:29:04;17.75;61.31
28175;SHT30;59417;44.788;10.334;2022-09-19T03:31:37;17.66;61.68
28175;SHT30;59417;44.788;10.334;2022-09-19T03:34:06;17.43;62.17
28175;SHT30;59417;44.788;10.334;2022-09-19T03:36:33;17.47;62.56
28175;SHT30;59417;44.788;10.334;2022-09-19T03:39:00;17.44;62.39
28175;SHT30;59417;44.788;10.334;2022-09-19T03:41:32;17.43;62.78
28175;SHT30;59417;44.788;10.334;2022-09-19T03:43:59;17.29;62.88
28175;SHT30;59417;44.788;10.334;2022-09-19T03:46:28;17.23;62.98
28175;SHT30;59417;44.788;10.334;2022-09-19T03:48:57;17.27;62.39
28175;SHT30;59417;44.788;10.334;2022-09-19T03:51:23;17.39;62.62
28175;SHT30;59417;44.788;10.334;2022-09-19T03:53:50;17.34;63.02
28175;SHT30;59417;44.788;10.334;2022-09-19T03:56:19;17.23;63.12
28175;SHT30;59417;44.788;10.334;2022-09-19T03:58:46;17.23;63.46
28175;SHT30;59417;44.788;10.334;2022-09-19T04:01:13;17.22;63.16
28175;SHT30;59417;44.788;10.334;2022-09-19T04:03:40;17.34;62.46
28175;SHT30;59417;44.788;10.334;2022-09-19T04:06:08;17.34;63.85
28175;SHT30;59417;44.788;10.334;2022-09-19T04:08:35;17.30;63.60
28175;SHT30;59417;44.788;10.334;2022-09-19T04:11:01;17.15;64.06
28175;SHT30;59417;44.788;10.334;2022-09-19T04:13:28;17.16;63.87
28175;SHT30;59417;44.788;10.334;2022-09-19T04:16:00;17.23;63.76
28175;SHT30;59417;44.788;10.334;2022-09-19T04:18:27;17.10;63.66
28175;SHT30;59417;44.788;10.334;2022-09-19T04:20:54;17.02;64.34
28175;SHT30;59417;44.788;10.334;2022-09-19T04:23:50;16.99;64.01
28175;SHT30;59417;44.788;10.334;2022-09-19T04:26:21;17.12;63.73
28175;SHT30;59417;44.788;10.334;2022-09-19T04:28:48;17.12;63.98
28175;SHT30;59417;44.788;10.334;2022-09-19T04:31:14;17.02;64.16
28175;SHT30;59417;44.788;10.334;2022-09-19T04:33:45;16.95;64.64
28175;SHT30;59417;44.788;10.334;2022-09-19T04:36:10;16.94;65.14
28175;SHT30;59417;44.788;10.334;2022-09-19T04:38:41;16.85;65.05
28175;SHT30;59417;44.788;10.334;2022-09-19T04:41:15;16.78;64.83
28175;SHT30;59417;44.788;10.334;2022-09-19T04:43:41;16.73;65.32
28175;SHT30;59417;44.788;10.334;2022-09-19T04:46:31;16.65;65.53
28175;SHT30;59417;44.788;10.334;2022-09-19T04:49:02;16.72;65.48
28175;SHT30;59417;44.788;10.334;2022-09-19T04:51:33;16.71;66.08
28175;SHT30;59417;44.788;10.334;2022-09-19T04:53:59;16.71;65.57
28175;SHT30;59417;44.788;10.334;2022-09-19T04:56:26;16.61;66.20
28175;SHT30;59417;44.788;10.334;2022-09-19T04:58:53;16.59;66.41
28175;SHT30;59417;44.788;10.334;2022-09-19T05:01:20;16.65;66.02
28175;SHT30;59417;44.788;10.334;2022-09-19T05:03:46;16.64;66.59
28175;SHT30;59417;44.788;10.334;2022-09-19T05:06:14;16.64;66.78
28175;SHT30;59417;44.788;10.334;2022-09-19T05:08:40;16.59;66.85
28175;SHT30;59417;44.788;10.334;2022-09-19T05:11:25;16.62;67.44
28175;SHT30;59417;44.788;10.334;2022-09-19T05:13:50;16.54;67.19
28175;SHT30;59417;44.788;10.334;2022-09-19T05:16:21;16.58;67.17
28175;SHT30;59417;44.788;10.334;2022-09-19T05:19:01;16.54;66.49
28175;SHT30;59417;44.788;10.334;2022-09-19T05:21:28;16.52;67.45
28175;SHT30;59417;44.788;10.334;2022-09-19T05:23:56;16.57;67.62
28175;SHT30;59417;44.788;10.334;2022-09-19T05:26:21;16.51;67.28
28175;SHT30;59417;44.788;10.334;2022-09-19T05:28:50;16.54;67.11
28175;SHT30;59417;44.788;10.334;2022-09-19T05:31:17;16.55;67.28
28175;SHT30;59417;44.788;10.334;2022-09-19T05:33:52;16.65;67.25
28175;SHT30;59417;44.788;10.334;2022-09-19T05:36:21;16.79;65.80
28175;SHT30;59417;44.788;10.334;2022-09-19T05:39:06;16.86;65.52
28175;SHT30;59417;44.788;10.334;2022-09-19T05:41:53;16.91;66.73
28175;SHT30;59417;44.788;10.334;2022-09-19T05:44:21;16.98;66.27
28175;SHT30;59417;44.788;10.334;2022-09-19T05:46:52;16.95;65.22
28175;SHT30;59417;44.788;10.334;2022-09-19T05:49:18;16.99;65.91
28175;SHT30;59417;44.788;10.334;2022-09-19T05:51:44;17.02;66.03
28175;SHT30;59417;44.788;10.334;2022-09-19T05:54:13;17.02;66.71
28175;SHT30;59417;44.788;10.334;2022-09-19T05:56:56;17.10;66.07
28175;SHT30;59417;44.788;10.334;2022-09-19T05:59:25;17.20;66.13
28175;SHT30;59417;44.788;10.334;2022-09-19T06:01:51;17.24;65.92
28175;SHT30;59417;44.788;10.334;2022-09-19T06:04:37;17.30;66.24
28175;SHT30;59417;44.788;10.334;2022-09-19T06:07:03;17.33;65.94
28175;SHT30;59417;44.788;10.334;2022-09-19T06:09:30;17.37;65.91
28175;SHT30;59417;44.788;10.334;2022-09-19T06:11:58;17.50;64.54
28175;SHT30;59417;44.788;10.334;2022-09-19T06:14:24;17.53;64.20
28175;SHT30;59417;44.788;10.334;2022-09-19T06:16:53;17.69;63.99
28175;SHT30;59417;44.788;10.334;2022-09-19T06:19:38;17.69;64.31
28175;SHT30;59417;44.788;10.334;2022-09-19T06:22:12;17.67;64.15
28175;SHT30;59417;44.788;10.334;2022-09-19T06:24:41;17.74;64.18
28175;SHT30;59417;44.788;10.334;2022-09-19T06:27:09;17.71;64.46
28175;SHT30;59417;44.788;10.334;2022-09-19T06:29:38;17.81;65.48
28175;SHT30;59417;44.788;10.334;2022-09-19T06:32:30;17.77;65.20
28175;SHT30;59417;44.788;10.334;2022-09-19T06:35:24;17.92;64.80
28175;SHT30;59417;44.788;10.334;2022-09-19T06:38:00;17.95;64.97
28175;SHT30;59417;44.788;10.334;2022-09-19T06:40:28;18.18;64.91
28175;SHT30;59417;44.788;10.334;2022-09-19T06:43:09;18.12;65.38
28175;SHT30;59417;44.788;10.334;2022-09-19T06:45:58;18.23;64.98
28175;SHT30;59417;44.788;10.334;2022-09-19T06:48:41;18.39;64.48
28175;SHT30;59417;44.788;10.334;2022-09-19T06:51:29;18.59;64.72
28175;SHT30;59417;44.788;10.334;2022-09-19T06:53:55;18.57;64.74
28175;SHT30;59417;44.788;10.334;2022-09-19T06:56:22;18.59;64.85
28175;SHT30;59417;44.788;10.334;2022-09-19T06:58:47;18.67;64.23
28175;SHT30;59417;44.788;10.334;2022-09-19T07:01:13;18.83;64.30
28175;SHT30;59417;44.788;10.334;2022-09-19T07:03:41;18.91;63.68
28175;SHT30;59417;44.788;10.334;2022-09-19T07:06:09;18.97;63.77
28175;SHT30;59417;44.788;10.334;2022-09-19T07:08:37;19.04;63.41
28175;SHT30;59417;44.788;10.334;2022-09-19T07:11:06;19.18;62.94
28175;SHT30;59417;44.788;10.334;2022-09-19T07:13:36;19.30;62.30
28175;SHT30;59417;44.788;10.334;2022-09-19T07:16:05;19.25;62.21
28175;SHT30;59417;44.788;10.334;2022-09-19T07:18:32;19.39;63.05
28175;SHT30;59417;44.788;10.334;2022-09-19T07:21:32;19.48;61.85
28175;SHT30;59417;44.788;10.334;2022-09-19T07:23:59;19.45;61.95
28175;SHT30;59417;44.788;10.334;2022-09-19T07:26:47;19.48;61.70
28175;SHT30;59417;44.788;10.334;2022-09-19T07:29:16;19.69;60.93
28175;SHT30;59417;44.788;10.334;2022-09-19T07:31:41;19.76;60.88
28175;SHT30;59417;44.788;10.334;2022-09-19T07:34:08;19.75;61.35
28175;SHT30;59417;44.788;10.334;2022-09-19T07:36:50;19.79;61.20
28175;SHT30;59417;44.788;10.334;2022-09-19T07:39:22;19.76;61.40
28175;SHT30;59417;44.788;10.334;2022-09-19T07:42:04;19.80;61.76
28175;SHT30;59417;44.788;10.334;2022-09-19T07:44:32;19.90;61.23
28175;SHT30;59417;44.788;10.334;2022-09-19T07:47:30;20.00;62.35
28175;SHT30;59417;44.788;10.334;2022-09-19T07:50:17;20.12;61.12
28175;SHT30;59417;44.788;10.334;2022-09-19T07:53:12;20.09;60.75
28175;SHT30;59417;44.788;10.334;2022-09-19T07:56:21;20.23;60.90
28175;SHT30;59417;44.788;10.334;2022-09-19T07:58:52;20.40;59.62
28175;SHT30;59417;44.788;10.334;2022-09-19T08:01:18;20.41;60.01
28175;SHT30;59417;44.788;10.334;2022-09-19T08:04:04;20.53;61.29
28175;SHT30;59417;44.788;10.334;2022-09-19T08:06:41;20.54;60.54
28175;SHT30;59417;44.788;10.334;2022-09-19T08:09:09;20.68;60.09
28175;SHT30;59417;44.788;10.334;2022-09-19T08:11:50;20.88;59.78
28175;SHT30;59417;44.788;10.334;2022-09-19T08:14:16;21.06;59.61
28175;SHT30;59417;44.788;10.334;2022-09-19T08:16:44;21.25;59.05
28175;SHT30;59417;44.788;10.334;2022-09-19T08:19:12;21.05;59.99
28175;SHT30;59417;44.788;10.334;2022-09-19T08:21:56;21.12;59.57
28175;SHT30;59417;44.788;10.334;2022-09-19T08:25:02;20.98;60.28
28175;SHT30;59417;44.788;10.334;2022-09-19T08:27:32;20.78;59.59
28175;SHT30;59417;44.788;10.334;2022-09-19T08:29:58;20.91;60.85
28175;SHT30;59417;44.788;10.334;2022-09-19T08:32:24;21.04;59.96
28175;SHT30;59417;44.788;10.334;2022-09-19T08:34:51;21.06;61.33
28175;SHT30;59417;44.788;10.334;2022-09-19T08:37:18;21.23;59.94
28175;SHT30;59417;44.788;10.334;2022-09-19T08:39:44;21.28;59.76
28175;SHT30;59417;44.788;10.334;2022-09-19T08:45:17;21.38;59.65
28175;SHT30;59417;44.788;10.334;2022-09-19T08:47:44;21.41;59.02
28175;SHT30;59417;44.788;10.334;2022-09-19T08:50:15;21.45;58.59
28175;SHT30;59417;44.788;10.334;2022-09-19T08:52:50;21.45;59.23
28175;SHT30;59417;44.788;10.334;2022-09-19T08:55:24;21.57;58.48
28175;SHT30;59417;44.788;10.334;2022-09-19T08:57:58;21.47;57.65
28175;SHT30;59417;44.788;10.334;2022-09-19T09:00:41;21.41;57.18
28175;SHT30;59417;44.788;10.334;2022-09-19T09:03:47;21.47;57.75
28175;SHT30;59417;44.788;10.334;2022-09-19T09:12:31;21.86;57.54
28175;SHT30;59417;44.788;10.334;2022-09-19T09:23:35;22.17;57.75
28175;SHT30;59417;44.788;10.334;2022-09-19T09:26:28;22.25;56.49
28175;SHT30;59417;44.788;10.334;2022-09-19T09:29:15;22.37;55.56
28175;SHT30;59417;44.788;10.334;2022-09-19T09:32:04;22.47;56.59
28175;SHT30;59417;44.788;10.334;2022-09-19T09:35:10;22.38;55.97
28175;SHT30;59417;44.788;10.334;2022-09-19T09:40:18;22.78;56.08
28175;SHT30;59417;44.788;10.334;2022-09-19T09:43:07;22.80;54.01
28175;SHT30;59417;44.788;10.334;2022-09-19T09:45:40;23.04;55.72
28175;SHT30;59417;44.788;10.334;2022-09-19T09:51:39;22.85;55.25
28175;SHT30;59417;44.788;10.334;2022-09-19T09:54:14;22.89;55.68
28175;SHT30;59417;44.788;10.334;2022-09-19T09:59:55;22.90;55.07
28175;SHT30;59417;44.788;10.334;2022-09-19T10:06:31;23.30;54.50
28175;SHT30;59417;44.788;10.334;2022-09-19T10:09:11;23.33;54.94
28175;SHT30;59417;44.788;10.334;2022-09-19T10:12:04;23.39;53.79
28175;SHT30;59417;44.788;10.334;2022-09-19T10:14:37;23.27;54.27
28175;SHT30;59417;44.788;10.334;2022-09-19T10:17:19;23.39;53.32
28175;SHT30;59417;44.788;10.334;2022-09-19T10:19:48;23.49;53.37
28175;SHT30;59417;44.788;10.334;2022-09-19T10:22:17;23.61;52.27
28175;SHT30;59417;44.788;10.334;2022-09-19T10:24:55;23.70;51.49
28175;SHT30;59417;44.788;10.334;2022-09-19T10:32:40;23.87;52.73
28175;SHT30;59417;44.788;10.334;2022-09-19T10:35:37;23.94;50.74
28175;SHT30;59417;44.788;10.334;2022-09-19T10:38:10;24.05;49.70
28175;SHT30;59417;44.788;10.334;2022-09-19T10:41:36;24.18;49.17
28175;SHT30;59417;44.788;10.334;2022-09-19T10:44:17;23.98;49.59
28175;SHT30;59417;44.788;10.334;2022-09-19T10:46:51;23.85;49.71
28175;SHT30;59417;44.788;10.334;2022-09-19T10:49:46;24.18;50.04
28175;SHT30;59417;44.788;10.334;2022-09-19T10:52:26;24.32;49.33
28175;SHT30;59417;44.788;10.334;2022-09-19T10:55:01;24.45;48.43
28175;SHT30;59417;44.788;10.334;2022-09-19T10:57:43;24.29;48.07
28175;SHT30;59417;44.788;10.334;2022-09-19T11:00:26;24.19;47.19
28175;SHT30;59417;44.788;10.334;2022-09-19T11:03:08;24.18;47.11
28175;SHT30;59417;44.788;10.334;2022-09-19T11:05:41;24.02;44.91
28175;SHT30;59417;44.788;10.334;2022-09-19T11:08:44;24.21;43.82
28175;SHT30;59417;44.788;10.334;2022-09-19T11:11:33;24.43;44.63
28175;SHT30;59417;44.788;10.334;2022-09-19T11:14:20;24.77;46.09
28175;SHT30;59417;44.788;10.334;2022-09-19T11:17:00;24.99;44.79
28175;SHT30;59417;44.788;10.334;2022-09-19T11:20:03;24.91;45.70
28175;SHT30;59417;44.788;10.334;2022-09-19T11:28:38;24.69;43.15
28175;SHT30;59417;44.788;10.334;2022-09-19T11:33:59;25.10;45.66
28175;SHT30;59417;44.788;10.334;2022-09-19T11:49:38;25.18;44.23
28175;SHT30;59417;44.788;10.334;2022-09-19T12:00:21;25.75;43.95
28175;SHT30;59417;44.788;10.334;2022-09-19T12:12:29;25.74;37.59
28175;SHT30;59417;44.788;10.334;2022-09-19T12:15:29;25.75;38.24
28175;SHT30;59417;44.788;10.334;2022-09-19T12:20:36;25.79;39.03
28175;SHT30;59417;44.788;10.334;2022-09-19T12:23:16;25.93;35.45
28175;SHT30;59417;44.788;10.334;2022-09-19T12:26:04;25.96;31.82
28175;SHT30;59417;44.788;10.334;2022-09-19T12:28:35;26.06;36.14
28175;SHT30;59417;44.788;10.334;2022-09-19T12:31:04;26.22;33.48
28175;SHT30;59417;44.788;10.334;2022-09-19T12:33:43;26.23;30.21
28175;SHT30;59417;44.788;10.334;2022-09-19T12:39:11;26.09;30.04
28175;SHT30;59417;44.788;10.334;2022-09-19T12:41:53;26.09;29.53
28175;SHT30;59417;44.788;10.334;2022-09-19T12:50:44;26.37;31.64
28175;SHT30;59417;44.788;10.334;2022-09-19T12:53:42;26.25;28.46
28175;SHT30;59417;44.788;10.334;2022-09-19T12:56:21;26.03;29.62
28175;SHT30;59417;44.788;10.334;2022-09-19T12:58:56;26.09;29.29
28175;SHT30;59417;44.788;10.334;2022-09-19T13:05:13;26.15;28.40
28175;SHT30;59417;44.788;10.334;2022-09-19T13:07:57;26.16;27.49
28175;SHT30;59417;44.788;10.334;2022-09-19T13:10:26;26.26;30.63
28175;SHT30;59417;44.788;10.334;2022-09-19T13:15:58;25.75;27.52
28175;SHT30;59417;44.788;10.334;2022-09-19T13:18:26;25.84;28.39
28175;SHT30;59417;44.788;10.334;2022-09-19T13:21:42;25.98;30.05
28175;SHT30;59417;44.788;10.334;2022-09-19T13:27:23;26.02;28.70
28175;SHT30;59417;44.788;10.334;2022-09-19T13:29:51;25.99;27.54
28175;SHT30;59417;44.788;10.334;2022-09-19T13:32:28;26.05;26.84
28175;SHT30;59417;44.788;10.334;2022-09-19T13:47:47;25.95;28.84
28175;SHT30;59417;44.788;10.334;2022-09-19T13:50:27;26.06;26.56
28175;SHT30;59417;44.788;10.334;2022-09-19T13:52:59;25.93;29.36
28175;SHT30;59417;44.788;10.334;2022-09-19T13:55:35;26.06;29.03
28175;SHT30;59417;44.788;10.334;2022-09-19T13:58:16;26.02;30.24
28175;SHT30;59417;44.788;10.334;2022-09-19T14:01:14;26.00;28.74
28175;SHT30;59417;44.788;10.334;2022-09-19T14:03:52;25.95;30.39
28175;SHT30;59417;44.788;10.334;2022-09-19T14:06:30;26.02;27.58
28175;SHT30;59417;44.788;10.334;2022-09-19T14:23:15;26.10;25.86
28175;SHT30;59417;44.788;10.334;2022-09-19T14:25:55;26.10;24.47
28175;SHT30;59417;44.788;10.334;2022-09-19T14:28:42;25.98;23.75
28175;SHT30;59417;44.788;10.334;2022-09-19T14:47:04;25.75;24.64
28175;SHT30;59417;44.788;10.334;2022-09-19T14:49:43;25.65;26.23
28175;SHT30;59417;44.788;10.334;2022-09-19T14:52:22;25.78;25.63
28175;SHT30;59417;44.788;10.334;2022-09-19T14:55:05;25.69;25.37
28175;SHT30;59417;44.788;10.334;2022-09-19T14:57:32;25.79;23.74
28175;SHT30;59417;44.788;10.334;2022-09-19T15:02:46;25.71;21.89
28175;SHT30;59417;44.788;10.334;2022-09-19T15:05:22;25.74;22.13
28175;SHT30;59417;44.788;10.334;2022-09-19T15:07:49;25.58;25.31
28175;SHT30;59417;44.788;10.334;2022-09-19T15:10:30;25.44;26.51
28175;SHT30;59417;44.788;10.334;2022-09-19T15:13:19;25.41;25.39
28175;SHT30;59417;44.788;10.334;2022-09-19T15:15:55;25.45;24.91
28175;SHT30;59417;44.788;10.334;2022-09-19T15:18:46;25.39;24.89
28175;SHT30;59417;44.788;10.334;2022-09-19T15:21:18;25.42;24.68
28175;SHT30;59417;44.788;10.334;2022-09-19T15:23:47;25.54;23.69
28175;SHT30;59417;44.788;10.334;2022-09-19T15:26:16;25.47;26.18
28175;SHT30;59417;44.788;10.334;2022-09-19T15:29:04;25.61;20.05
28175;SHT30;59417;44.788;10.334;2022-09-19T15:31:31;25.39;23.89
28175;SHT30;59417;44.788;10.334;2022-09-19T15:34:02;25.28;25.34
28175;SHT30;59417;44.788;10.334;2022-09-19T15:36:44;25.33;27.08
28175;SHT30;59417;44.788;10.334;2022-09-19T15:39:13;25.41;25.14
28175;SHT30;59417;44.788;10.334;2022-09-19T15:41:41;25.47;24.51
28175;SHT30;59417;44.788;10.334;2022-09-19T15:44:24;25.57;23.80
28175;SHT30;59417;44.788;10.334;2022-09-19T15:47:14;25.39;26.47
28175;SHT30;59417;44.788;10.334;2022-09-19T15:49:53;25.24;28.99
28175;SHT30;59417;44.788;10.334;2022-09-19T15:52:38;25.13;28.77
28175;SHT30;59417;44.788;10.334;2022-09-19T15:55:25;25.21;27.41
28175;SHT30;59417;44.788;10.334;2022-09-19T15:58:37;25.16;28.62
28175;SHT30;59417;44.788;10.334;2022-09-19T16:04:00;25.00;30.61
28175;SHT30;59417;44.788;10.334;2022-09-19T16:07:19;24.93;30.51
28175;SHT30;59417;44.788;10.334;2022-09-19T16:10:21;24.79;31.58
28175;SHT30;59417;44.788;10.334;2022-09-19T16:12:51;24.72;31.73
28175;SHT30;59417;44.788;10.334;2022-09-19T16:23:42;24.55;30.74
28175;SHT30;59417;44.788;10.334;2022-09-19T16:26:10;24.51;32.80
28175;SHT30;59417;44.788;10.334;2022-09-19T16:28:40;24.48;31.68
28175;SHT30;59417;44.788;10.334;2022-09-19T16:31:29;24.45;33.96
28175;SHT30;59417;44.788;10.334;2022-09-19T16:34:17;24.39;33.92
28175;SHT30;59417;44.788;10.334;2022-09-19T16:36:45;24.39;34.34
28175;SHT30;59417;44.788;10.334;2022-09-19T16:46:45;24.21;35.51
28175;SHT30;59417;44.788;10.334;2022-09-19T16:49:20;24.11;35.69
28175;SHT30;59417;44.788;10.334;2022-09-19T16:51:49;24.06;36.79
28175;SHT30;59417;44.788;10.334;2022-09-19T16:54:16;24.00;39.35
28175;SHT30;59417;44.788;10.334;2022-09-19T16:56:43;23.90;37.86
28175;SHT30;59417;44.788;10.334;2022-09-19T16:59:14;23.80;39.27
28175;SHT30;59417;44.788;10.334;2022-09-19T17:01:43;23.68;40.11
28175;SHT30;59417;44.788;10.334;2022-09-19T17:04:16;23.57;40.26
28175;SHT30;59417;44.788;10.334;2022-09-19T17:06:43;23.47;40.22
28175;SHT30;59417;44.788;10.334;2022-09-19T17:09:09;23.36;41.31
28175;SHT30;59417;44.788;10.334;2022-09-19T17:11:41;23.29;41.01
28175;SHT30;59417;44.788;10.334;2022-09-19T17:14:19;23.20;40.90
28175;SHT30;59417;44.788;10.334;2022-09-19T17:16:46;23.22;42.00
28175;SHT30;59417;44.788;10.334;2022-09-19T17:19:12;23.13;42.47
28175;SHT30;59417;44.788;10.334;2022-09-19T17:21:39;23.10;42.48
28175;SHT30;59417;44.788;10.334;2022-09-19T17:24:09;23.16;42.69
28175;SHT30;59417;44.788;10.334;2022-09-19T17:26:54;23.09;43.60
28175;SHT30;59417;44.788;10.334;2022-09-19T17:29:20;23.03;43.87
28175;SHT30;59417;44.788;10.334;2022-09-19T17:31:46;22.90;44.36
28175;SHT30;59417;44.788;10.334;2022-09-19T17:34:15;22.79;43.74
28175;SHT30;59417;44.788;10.334;2022-09-19T17:36:42;22.73;43.42
28175;SHT30;59417;44.788;10.334;2022-09-19T17:39:12;22.61;43.47
28175;SHT30;59417;44.788;10.334;2022-09-19T17:41:39;22.55;43.85
28175;SHT30;59417;44.788;10.334;2022-09-19T17:44:08;22.42;43.18
28175;SHT30;59417;44.788;10.334;2022-09-19T17:46:35;22.38;43.69
28175;SHT30;59417;44.788;10.334;2022-09-19T17:49:03;22.29;44.44
28175;SHT30;59417;44.788;10.334;2022-09-19T17:51:36;22.22;43.74
28175;SHT30;59417;44.788;10.334;2022-09-19T17:54:04;22.16;43.86
28175;SHT30;59417;44.788;10.334;2022-09-19T17:56:33;22.11;44.49
28175;SHT30;59417;44.788;10.334;2022-09-19T17:59:06;22.03;44.33
28175;SHT30;59417;44.788;10.334;2022-09-19T18:01:47;21.92;44.57
28175;SHT30;59417;44.788;10.334;2022-09-19T18:04:48;21.87;44.53
28175;SHT30;59417;44.788;10.334;2022-09-19T18:07:14;21.90;45.18
28175;SHT30;59417;44.788;10.334;2022-09-19T18:09:47;21.89;45.53
28175;SHT30;59417;44.788;10.334;2022-09-19T18:12:28;21.81;45.61
28175;SHT30;59417;44.788;10.334;2022-09-19T18:14:54;21.78;45.62
28175;SHT30;59417;44.788;10.334;2022-09-19T18:17:22;21.77;46.10
28175;SHT30;59417;44.788;10.334;2022-09-19T18:19:51;21.76;46.12
28175;SHT30;59417;44.788;10.334;2022-09-19T18:22:17;21.78;46.94
28175;SHT30;59417;44.788;10.334;2022-09-19T18:24:43;21.73;47.84
28175;SHT30;59417;44.788;10.334;2022-09-19T18:27:08;21.65;48.82
28175;SHT30;59417;44.788;10.334;2022-09-19T18:29:37;21.57;48.21
28175;SHT30;59417;44.788;10.334;2022-09-19T18:32:03;21.59;48.18
28175;SHT30;59417;44.788;10.334;2022-09-19T18:34:29;21.50;48.74
28175;SHT30;59417;44.788;10.334;2022-09-19T18:36:54;21.45;49.34
28175;SHT30;59417;44.788;10.334;2022-09-19T18:42:52;21.46;48.60
28175;SHT30;59417;44.788;10.334;2022-09-19T18:45:18;21.43;48.37
28175;SHT30;59417;44.788;10.334;2022-09-19T18:51:48;21.46;49.07
28175;SHT30;59417;44.788;10.334;2022-09-19T18:54:14;21.35;50.31
28175;SHT30;59417;44.788;10.334;2022-09-19T18:56:42;21.20;50.19
28175;SHT30;59417;44.788;10.334;2022-09-19T18:59:12;21.05;49.15
28175;SHT30;59417;44.788;10.334;2022-09-19T19:01:46;20.98;48.69
28175;SHT30;59417;44.788;10.334;2022-09-19T19:04:12;21.09;48.45
28175;SHT30;59417;44.788;10.334;2022-09-19T19:06:44;21.08;48.07
28175;SHT30;59417;44.788;10.334;2022-09-19T19:09:13;21.06;48.47
28175;SHT30;59417;44.788;10.334;2022-09-19T19:11:59;21.11;49.60
28175;SHT30;59417;44.788;10.334;2022-09-19T19:14:28;21.06;48.28
28175;SHT30;59417;44.788;10.334;2022-09-19T19:21:11;21.06;48.51
28175;SHT30;59417;44.788;10.334;2022-09-19T19:23:41;21.06;48.61
28175;SHT30;59417;44.788;10.334;2022-09-19T19:26:12;20.99;49.33
28175;SHT30;59417;44.788;10.334;2022-09-19T19:28:38;20.88;48.84